Time;durP1;ratioP1;P1;durP2;ratioP2;P2;SDS_P1;SDS_P2;PMS_P1;PMS_P2;Temp;Humidity;BMP_temperature;BMP_pressure;BME280_temperature;BME280_humidity;BME280_pressure;Samples;Min_cycle;Max_cycle;Signal;HPM_P1;HPM_P2
2023/12/17 00:01:18;;;;;;;11.90;8.90;;;;;;;17.94;35.95;100714.69;104569;1257;61729;-62
2023/12/17 00:03:45;;;;;;;11.70;9.60;;;;;;;17.91;35.92;100708.30;104705;1258;60531;-62
2023/12/17 00:06:14;;;;;;;11.90;8.60;;;;;;;17.84;36.12;100703.21;104933;1253;74029;-61
2023/12/17 00:08:42;;;;;;;12.10;9.20;;;;;;;17.88;36.01;100702.10;104641;1255;68161;-61
2023/12/17 00:11:10;;;;;;;10.50;9.10;;;;;;;18.14;35.59;100692.99;104544;1256;72892;-62
2023/12/17 00:13:38;;;;;;;;;;;;;;;17.68;36.23;100689.54;104685;1253;60561;-61
2023/12/17 00:16:06;;;;;;;;;;;;;;;17.68;36.23;100687.91;104638;1257;60502;-62
2023/12/17 00:18:34;;;;;;;19.20;9.60;;;;;;;17.55;36.40;100687.91;105308;1252;73594;-62
2023/12/17 00:21:03;;;;;;;13.20;10.20;;;;;;;17.72;36.19;100689.66;104825;1253;69059;-61
2023/12/17 00:23:30;;;;;;;12.20;9.30;;;;;;;17.44;36.54;100689.08;104637;1265;72439;-61
2023/12/17 00:25:59;;;;;;;11.90;9.50;;;;;;;17.24;36.99;100689.13;104697;1257;60835;-61
2023/12/17 00:28:27;;;;;;;13.50;9.20;;;;;;;17.22;36.98;100689.04;104601;1253;60869;-62
2023/12/17 00:30:55;;;;;;;13.40;9.50;;;;;;;17.31;36.75;100684.67;104727;1269;74506;-61
2023/12/17 00:33:22;;;;;;;14.20;9.20;;;;;;;17.21;36.87;100683.09;104971;1255;69990;-61
2023/12/17 00:35:51;;;;;;;13.50;10.60;;;;;;;17.19;36.98;100683.35;104951;1253;72837;-62
2023/12/17 00:38:19;;;;;;;14.60;10.50;;;;;;;17.27;36.89;100679.73;104796;1256;60689;-61
2023/12/17 00:40:47;;;;;;;13.10;9.60;;;;;;;17.74;36.30;100678.90;104703;1256;60448;-61
2023/12/17 00:43:15;;;;;;;13.70;10.50;;;;;;;18.04;35.73;100677.45;104985;1255;73662;-61
2023/12/17 00:45:43;;;;;;;15.70;10.90;;;;;;;18.07;35.75;100673.89;104767;1255;70032;-61
2023/12/17 05:51:44;;;;;;;18.90;13.40;;;;;;;16.94;40.78;100367.41;101440;1292;601693;-63
2023/12/17 05:54:15;;;;;;;20.60;13.30;;;;;;;18.58;36.42;100360.00;103461;1272;60604;-63
2023/12/17 05:56:43;;;;;;;21.50;14.00;;;;;;;18.55;36.22;100362.48;103897;1265;61067;-66
2023/12/17 05:59:11;;;;;;;21.80;13.60;;;;;;;18.29;36.61;100363.29;103748;1271;72121;-67
2023/12/17 06:01:38;;;;;;;;;;;;;;;18.39;36.53;100358.92;103727;1271;69157;-67
2023/12/17 06:04:06;;;;;;;19.30;14.00;;;;;;;18.36;36.49;100368.04;103823;1268;73012;-69
2023/12/17 06:06:34;;;;;;;19.70;13.90;;;;;;;18.57;36.19;100360.84;104139;1268;134141;-68
2023/12/17 06:09:02;;;;;;;21.60;13.80;;;;;;;18.52;36.18;100361.64;104008;1265;60142;-67
2023/12/17 06:11:29;;;;;;;17.20;12.80;;;;;;;18.50;36.25;100358.77;104242;1262;72329;-68
2023/12/17 06:13:57;;;;;;;20.20;14.20;;;;;;;18.55;36.27;100360.39;104287;1263;69217;-67
2023/12/17 06:16:26;;;;;;;21.40;13.60;;;;;;;18.26;36.60;100359.77;104732;1257;72499;-67
2023/12/17 06:18:54;;;;;;;20.10;13.60;;;;;;;18.42;36.41;100351.81;104732;1259;60928;-68
2023/12/17 06:21:22;;;;;;;20.90;14.40;;;;;;;18.39;36.36;100349.34;104465;1256;60345;-67
2023/12/17 06:23:51;;;;;;;18.80;13.40;;;;;;;18.17;36.74;100346.45;104545;1267;73326;-67
2023/12/17 06:26:19;;;;;;;15.90;12.10;;;;;;;17.97;37.29;100339.21;104541;1260;69840;-68
2023/12/17 06:28:47;;;;;;;17.20;13.30;;;;;;;18.08;37.03;100341.17;104909;1257;71501;-65
2023/12/17 06:31:15;;;;;;;18.10;13.20;;;;;;;18.06;37.22;100345.23;104637;1257;60274;-64
2023/12/17 06:33:42;;;;;;;;;;;;;;;17.98;37.37;100346.11;104496;1254;59759;-66
2023/12/17 06:36:10;;;;;;;18.90;13.10;;;;;;;18.11;37.20;100344.02;104392;1253;72809;-60
2023/12/17 06:38:39;;;;;;;;;;;;;;;18.12;37.24;100337.05;104337;1272;69128;-61
2023/12/17 06:41:10;;;;;;;21.40;14.00;;;;;;;17.79;37.62;100337.65;104349;1256;72698;-61
2023/12/17 06:43:39;;;;;;;19.90;14.00;;;;;;;17.75;37.81;100335.02;104372;1261;60611;-62
2023/12/17 06:46:07;;;;;;;19.20;13.90;;;;;;;17.49;38.24;100334.88;104839;1262;61807;-61
2023/12/17 06:48:35;;;;;;;17.90;12.70;;;;;;;17.76;38.04;100328.08;104415;1260;72791;-61
2023/12/17 06:51:03;;;;;;;18.80;13.80;;;;;;;17.82;37.76;100320.28;105060;1259;68272;-61
2023/12/17 06:53:31;;;;;;;18.30;13.80;;;;;;;17.58;38.14;100320.82;104258;1275;72623;-60
2023/12/17 06:55:59;;;;;;;19.90;13.60;;;;;;;17.63;38.14;100320.94;104931;1255;60649;-60
2023/12/17 06:58:27;;;;;;;20.00;13.60;;;;;;;17.83;37.84;100325.36;108011;1253;60085;-61
2023/12/17 07:00:55;;;;;;;19.50;13.10;;;;;;;17.85;37.89;100322.94;107921;1259;71637;-62
2023/12/17 07:03:26;;;;;;;17.30;12.80;;;;;;;18.08;37.58;100315.30;107733;1253;69336;-62
2023/12/17 07:05:54;;;;;;;16.80;12.20;;;;;;;18.09;37.52;100320.02;108025;1253;71455;-64
2023/12/17 07:08:21;;;;;;;17.60;11.60;;;;;;;18.14;37.30;100317.18;107945;1256;60651;-63
2023/12/17 07:10:50;;;;;;;15.50;11.00;;;;;;;17.85;37.89;100324.16;107923;1259;59694;-63
2023/12/17 07:13:17;;;;;;;16.20;11.00;;;;;;;17.75;37.96;100325.15;107672;1253;72969;-62
2023/12/17 07:15:46;;;;;;;15.40;11.40;;;;;;;17.95;37.74;100322.31;107904;1256;69166;-61
2023/12/17 07:18:13;;;;;;;17.20;11.60;;;;;;;17.97;37.73;100319.73;107895;1253;72412;-62
2023/12/17 07:20:41;;;;;;;16.80;11.00;;;;;;;18.03;37.58;100316.67;107947;1253;60697;-62
2023/12/17 07:23:09;;;;;;;13.80;10.60;;;;;;;17.83;37.82;100311.84;107964;1253;60336;-61
2023/12/17 07:25:37;;;;;;;16.40;11.00;;;;;;;17.84;37.83;100320.17;107968;1253;73524;-62
2023/12/17 07:28:05;;;;;;;16.30;11.00;;;;;;;17.65;38.08;100321.11;108052;1253;69597;-64
2023/12/17 07:30:35;;;;;;;13.40;10.30;;;;;;;17.89;37.75;100324.61;107590;1256;72116;-65
2023/12/17 07:33:02;;;;;;;14.60;11.10;;;;;;;17.50;38.45;100326.28;107954;1254;61098;-65
2023/12/17 07:35:30;;;;;;;11.50;9.70;;;;;;;17.42;38.44;100325.20;108120;1253;59709;-65
2023/12/17 07:37:58;;;;;;;;;;;;;;;17.41;38.68;100322.77;107931;1256;73294;-65
2023/12/17 07:40:26;;;;;;;13.90;9.80;;;;;;;17.60;38.38;100318.75;107932;1253;69336;-65
2023/12/17 07:42:54;;;;;;;13.50;10.30;;;;;;;17.87;37.94;100316.92;107685;1256;73354;-65
2023/12/17 07:45:22;;;;;;;15.10;10.90;;;;;;;17.61;38.43;100321.91;107916;1254;61059;-62
2023/12/17 07:47:50;;;;;;;13.10;9.90;;;;;;;17.30;38.88;100314.79;107859;1256;61142;-64
2023/12/17 07:50:18;;;;;;;13.10;10.20;;;;;;;17.37;39.03;100305.64;107869;1254;73452;-63
2023/12/17 07:52:46;;;;;;;13.20;10.00;;;;;;;17.61;38.73;100309.87;108301;1253;69848;-62
2023/12/17 07:55:14;;;;;;;12.00;10.20;;;;;;;17.64;38.36;100308.45;108375;1253;73367;-63
2023/12/17 07:57:42;;;;;;;11.10;9.60;;;;;;;17.67;38.66;100314.85;108196;1253;60095;-63
2023/12/17 08:00:11;;;;;;;9.50;8.50;;;;;;;17.54;38.68;100314.69;108480;1252;59755;-64
2023/12/17 08:02:40;;;;;;;13.10;9.70;;;;;;;17.57;38.88;100319.11;108295;1251;72840;-64
2023/12/17 08:05:08;;;;;;;10.60;8.90;;;;;;;17.70;38.50;100322.60;108402;1252;69741;-63
2023/12/17 08:07:37;;;;;;;12.00;9.20;;;;;;;17.82;38.37;100321.33;108308;1253;72784;-63
2023/12/17 08:10:06;;;;;;;13.10;9.70;;;;;;;17.92;38.14;100329.62;108293;1253;60757;-62
2023/12/17 08:12:34;;;;;;;12.30;9.60;;;;;;;17.74;38.32;100332.13;108027;1253;58720;-64
2023/12/17 08:15:04;;;;;;;12.10;8.70;;;;;;;17.86;38.29;100327.64;108331;1253;73019;-65
2023/12/17 08:17:32;;;;;;;11.80;9.00;;;;;;;17.70;38.34;100333.27;108401;1252;69406;-63
2023/12/17 08:19:59;;;;;;;13.70;9.60;;;;;;;17.74;38.30;100331.06;108401;1253;73986;-64
2023/12/17 08:22:27;;;;;;;10.60;8.60;;;;;;;17.90;38.06;100328.28;108313;1253;59968;-65
2023/12/17 08:24:55;;;;;;;;;;;;;;;18.03;37.97;100322.02;108422;1253;60424;-64
2023/12/17 08:27:23;;;;;;;;;;;;;;;17.98;38.05;100325.70;108425;1251;73026;-63
2023/12/17 08:29:51;;;;;;;11.40;8.80;;;;;;;17.77;38.44;100324.66;108228;1253;68312;-64
2023/12/17 08:32:20;;;;;;;13.10;9.20;;;;;;;17.96;38.24;100319.06;108370;1252;72377;-63
2023/12/17 08:34:48;;;;;;;12.90;9.60;;;;;;;17.94;38.23;100316.91;108076;1253;60697;-62
2023/12/17 08:37:16;;;;;;;11.00;9.00;;;;;;;17.90;38.35;100314.30;108231;1252;59798;-63
2023/12/17 08:39:44;;;;;;;12.40;8.80;;;;;;;18.64;37.41;100308.85;108350;1254;73103;-63
2023/12/17 08:42:11;;;;;;;;;;;;;;;18.16;37.81;100307.34;108399;1251;69456;-64
2023/12/17 08:44:39;;;;;;;;;;;;;;;18.24;37.79;100305.61;108225;1253;72001;-63
2023/12/17 08:47:07;;;;;;;10.50;7.90;;;;;;;18.16;37.86;100302.55;108225;1252;61626;-63
2023/12/17 08:49:34;;;;;;;12.80;9.10;;;;;;;18.09;38.03;100303.33;108263;1253;59540;-64
2023/12/17 08:52:02;;;;;;;;;;;;;;;18.07;38.04;100294.23;108337;1256;72864;-64
2023/12/17 08:54:30;;;;;;;;;;;;;;;18.00;38.26;100297.00;108330;1251;69769;-64
2023/12/17 08:56:58;;;;;;;9.60;8.00;;;;;;;17.86;38.16;100293.97;108281;1251;72510;-65
2023/12/17 08:59:26;;;;;;;;;;;;;;;17.58;38.83;100294.78;108285;1252;60813;-64
2023/12/17 09:01:53;;;;;;;9.10;6.80;;;;;;;17.82;38.46;100291.71;108289;1253;59937;-64
2023/12/17 09:04:21;;;;;;;8.70;7.40;;;;;;;17.77;38.40;100289.89;108150;1253;71846;-64
2023/12/17 09:06:50;;;;;;;8.50;6.00;;;;;;;17.66;38.62;100292.67;108315;1252;69359;-63
2023/12/17 09:09:17;;;;;;;7.40;6.20;;;;;;;17.77;38.31;100287.06;108393;1253;73306;-64
2023/12/17 09:11:45;;;;;;;;;;;;;;;17.96;38.13;100283.25;108354;1255;60800;-61
2023/12/17 09:14:14;;;;;;;8.40;6.30;;;;;;;17.97;37.97;100281.23;108021;1252;60050;-61
2023/12/17 09:16:42;;;;;;;6.50;5.80;;;;;;;17.73;38.34;100285.52;108308;1253;72895;-61
2023/12/17 09:19:09;;;;;;;;;;;;;;;17.86;38.18;100285.09;108368;1251;69159;-62
2023/12/17 09:21:38;;;;;;;6.50;5.90;;;;;;;17.98;38.02;100283.14;108186;1253;72236;-62
2023/12/17 09:24:06;;;;;;;7.30;6.10;;;;;;;17.81;37.97;100287.04;108266;1253;60619;-61
2023/12/17 09:26:34;;;;;;;7.50;5.90;;;;;;;17.99;37.91;100282.88;108376;1253;60248;-61
2023/12/17 09:29:02;;;;;;;8.30;6.60;;;;;;;17.98;37.99;100285.41;108330;1251;72791;-60
2023/12/17 09:31:30;;;;;;;7.50;6.70;;;;;;;17.90;38.00;100283.27;108295;1252;69171;-61
2023/12/17 09:33:57;;;;;;;8.00;6.50;;;;;;;17.94;37.96;100280.34;108242;1254;72332;-64
2023/12/17 09:36:27;;;;;;;;;;;;;;;17.91;38.05;100279.80;108165;1253;60593;-62
2023/12/17 09:38:55;;;;;;;8.00;7.10;;;;;;;17.73;38.38;100276.50;108101;1251;59539;-64
2023/12/17 09:41:23;;;;;;;9.50;8.10;;;;;;;17.66;38.32;100278.19;108312;1253;72750;-64
2023/12/17 09:43:51;;;;;;;10.00;7.80;;;;;;;17.87;38.25;100281.33;108248;1251;70055;-65
2023/12/17 09:46:19;;;;;;;;;;;;;;;17.88;38.28;100278.77;107967;1253;72228;-64
2023/12/17 09:48:47;;;;;;;;;;;;;;;18.02;38.00;100279.50;108209;1254;60765;-67
2023/12/17 09:51:17;;;;;;;6.90;5.50;;;;;;;18.52;37.31;100272.33;108330;1254;59549;-65
2023/12/17 09:53:44;;;;;;;5.40;4.90;;;;;;;17.88;38.13;100271.34;108119;1253;73002;-64
2023/12/17 09:56:12;;;;;;;5.70;4.70;;;;;;;17.84;38.10;100271.95;108287;1252;69609;-65
2023/12/17 09:58:40;;;;;;;5.20;4.70;;;;;;;18.03;38.02;100269.85;107860;1255;72985;-66
2023/12/17 10:01:08;;;;;;;6.10;5.00;;;;;;;18.18;37.85;100261.96;108358;1253;61619;-65
2023/12/17 10:03:36;;;;;;;5.50;5.00;;;;;;;17.81;38.23;100267.64;108153;1253;60707;-66
2023/12/17 10:06:04;;;;;;;7.80;5.30;;;;;;;17.81;38.30;100267.84;108252;1253;73682;-65
2023/12/17 10:08:32;;;;;;;5.70;5.00;;;;;;;18.03;38.09;100266.13;108257;1254;69144;-67
2023/12/17 10:11:00;;;;;;;;;;;;;;;18.15;37.98;100276.73;108385;1253;73148;-65
2023/12/17 10:13:28;;;;;;;5.60;5.10;;;;;;;18.19;37.76;100276.11;108309;1253;59630;-66
2023/12/17 10:15:56;;;;;;;5.60;5.00;;;;;;;18.23;37.82;100267.33;108264;1254;60727;-66
2023/12/17 10:18:24;;;;;;;6.20;4.40;;;;;;;18.14;37.92;100270.78;108261;1254;74483;-66
2023/12/17 10:20:52;;;;;;;6.30;4.90;;;;;;;17.83;38.34;100268.75;108328;1252;69738;-67
2023/12/17 10:23:20;;;;;;;4.50;4.10;;;;;;;18.14;38.12;100260.63;108294;1254;72512;-67
2023/12/17 10:25:57;;;;;;;5.60;4.90;;;;;;;18.16;37.95;100263.00;108290;1253;60934;-66
2023/12/17 10:28:25;;;;;;;5.20;4.70;;;;;;;18.41;37.60;100261.03;108058;1253;60105;-66
2023/12/17 10:30:54;;;;;;;5.70;4.60;;;;;;;18.34;37.61;100260.95;108208;1253;74529;-66
2023/12/17 10:33:23;;;;;;;5.60;5.00;;;;;;;18.14;38.08;100252.49;108175;1258;70155;-65
2023/12/17 10:35:51;;;;;;;5.90;4.10;;;;;;;18.38;37.68;100251.61;108272;1251;73307;-65
2023/12/17 10:38:19;;;;;;;4.10;3.70;;;;;;;18.24;37.93;100251.15;108095;1254;61658;-66
2023/12/17 10:40:47;;;;;;;4.10;3.60;;;;;;;18.10;38.04;100248.68;108091;1251;60086;-64
2023/12/17 10:43:15;;;;;;;4.50;4.10;;;;;;;18.30;37.84;100250.39;108279;1253;73675;-64
2023/12/17 10:45:43;;;;;;;4.40;4.00;;;;;;;18.35;37.79;100252.36;108384;1256;69251;-65
2023/12/17 10:48:12;;;;;;;4.00;3.60;;;;;;;18.45;37.93;100250.45;108014;1254;73430;-65
2023/12/17 10:50:40;;;;;;;4.10;3.70;;;;;;;18.21;38.00;100244.73;107959;1251;61613;-65
2023/12/17 10:53:08;;;;;;;4.00;3.60;;;;;;;17.82;38.41;100247.20;108370;1257;59679;-68
2023/12/17 10:55:36;;;;;;;3.70;3.30;;;;;;;18.13;38.25;100244.16;108101;1252;73250;-66
2023/12/17 10:58:07;;;;;;;;;;;;;;;18.29;37.88;100243.65;108315;1253;69134;-66
2023/12/17 11:00:35;;;;;;;3.40;2.90;;;;;;;18.43;37.65;100243.83;108184;1254;72380;-67
2023/12/17 11:03:06;;;;;;;3.90;3.40;;;;;;;18.44;37.76;100250.86;107849;1253;60854;-66
2023/12/17 11:05:34;;;;;;;3.60;3.20;;;;;;;18.76;37.20;100247.01;108001;1251;59732;-65
2023/12/17 11:08:02;;;;;;;4.20;3.40;;;;;;;18.69;37.30;100247.63;108244;1253;73735;-65
2023/12/17 11:10:30;;;;;;;3.90;3.50;;;;;;;18.86;37.26;100244.37;108095;1254;68747;-66
2023/12/17 11:12:58;;;;;;;4.30;3.40;;;;;;;18.73;37.16;100253.07;107942;1251;71717;-65
2023/12/17 11:15:26;;;;;;;4.50;3.80;;;;;;;18.51;37.41;100243.16;108062;1253;60610;-63
2023/12/17 11:17:54;;;;;;;3.90;3.40;;;;;;;18.32;37.70;100240.30;108174;1256;59800;-62
2023/12/17 11:20:33;;;;;;;3.40;3.10;;;;;;;18.19;37.95;100239.56;108061;1251;76146;-62
2023/12/17 11:23:02;;;;;;;;;;;;;;;18.43;37.57;100239.73;108252;1251;69654;-61
2023/12/17 11:25:34;;;;;;;4.10;3.70;;;;;;;18.75;37.24;100247.08;107980;1254;71446;-62
2023/12/17 11:28:03;;;;;;;4.30;3.90;;;;;;;18.57;37.26;100249.80;108006;1254;60707;-61
2023/12/17 11:30:32;;;;;;;4.40;3.30;;;;;;;18.48;37.43;100243.14;107883;1251;59706;-62
2023/12/17 11:33:01;;;;;;;4.40;4.00;;;;;;;18.39;37.56;100246.38;108167;1253;72538;-63
2023/12/17 11:35:30;;;;;;;3.80;3.40;;;;;;;18.51;37.27;100252.23;107978;1253;70305;-61
2023/12/17 11:37:58;;;;;;;4.00;3.60;;;;;;;18.43;37.42;100253.63;107944;1254;72328;-62
2023/12/17 11:40:27;;;;;;;3.80;3.40;;;;;;;18.52;37.38;100243.56;108233;1253;61039;-61
2023/12/17 11:42:59;;;;;;;5.10;3.70;;;;;;;18.59;37.29;100244.01;108055;1251;60606;-62
2023/12/17 11:45:47;;;;;;;4.40;4.00;;;;;;;18.24;37.79;100243.48;107937;1252;73574;-62
2023/12/17 11:48:18;;;;;;;3.90;3.50;;;;;;;17.84;38.54;100251.85;108220;1252;69654;-62
2023/12/17 11:50:52;;;;;;;3.80;3.40;;;;;;;18.22;37.97;100249.11;108251;1254;72510;-62
2023/12/17 11:53:20;;;;;;;3.90;3.30;;;;;;;18.52;37.43;100248.40;108138;1253;61195;-64
2023/12/17 11:55:53;;;;;;;4.80;3.80;;;;;;;18.00;38.07;100247.12;108226;1253;60880;-62
2023/12/17 11:58:21;;;;;;;9.90;3.90;;;;;;;17.96;38.39;100253.09;108392;1255;74199;-62
2023/12/17 12:01:01;;;;;;;3.80;3.40;;;;;;;18.44;37.81;100248.52;108251;1253;69114;-62
2023/12/17 12:03:29;;;;;;;4.30;3.70;;;;;;;18.39;37.73;100250.14;108238;1253;72700;-63
2023/12/17 12:05:59;;;;;;;4.80;3.80;;;;;;;18.63;37.75;100243.42;108220;1254;60667;-62
2023/12/17 12:08:34;;;;;;;4.70;4.10;;;;;;;18.52;37.72;100243.91;108269;1253;58879;-62
2023/12/17 12:11:02;;;;;;;3.90;3.50;;;;;;;18.22;38.12;100242.55;108073;1254;73648;-62
2023/12/17 12:13:31;;;;;;;;;;;;;;;18.44;37.71;100235.61;108406;1253;68228;-66
2023/12/17 12:15:59;;;;;;;3.90;3.60;;;;;;;18.37;37.93;100228.83;107643;1253;72921;-62
2023/12/17 12:18:26;;;;;;;;;;;;;;;18.24;38.06;100229.27;108275;1254;60546;-63
2023/12/17 12:20:55;;;;;;;4.20;3.80;;;;;;;18.47;37.88;100229.17;108167;1252;59431;-63
2023/12/17 12:23:23;;;;;;;5.50;4.60;;;;;;;18.34;38.10;100230.10;108060;1253;74866;-61
2023/12/17 12:25:58;;;;;;;4.40;4.00;;;;;;;18.62;37.80;100231.54;108019;1257;68115;-61
2023/12/17 12:28:26;;;;;;;5.20;4.10;;;;;;;18.89;37.42;100234.23;108341;1254;72724;-62
2023/12/17 12:30:54;;;;;;;4.70;4.20;;;;;;;18.85;37.36;100240.19;108269;1254;60096;-63
2023/12/17 12:33:21;;;;;;;5.60;4.40;;;;;;;18.57;37.75;100242.90;108331;1254;60936;-63
2023/12/17 12:35:49;;;;;;;5.50;4.90;;;;;;;18.68;37.69;100247.01;108198;1254;72595;-61
2023/12/17 12:38:22;;;;;;;5.90;4.40;;;;;;;18.85;37.50;100257.78;108118;1254;69718;-61
2023/12/17 12:40:51;;;;;;;5.60;4.40;;;;;;;18.88;37.34;100257.08;108137;1254;72463;-62
2023/12/17 12:43:21;;;;;;;8.40;5.40;;;;;;;18.83;37.50;100261.97;107969;1253;60650;-62
2023/12/17 12:45:50;;;;;;;4.60;4.20;;;;;;;18.65;37.62;100269.00;108243;1254;59334;-61
2023/12/17 12:48:27;;;;;;;5.30;4.80;;;;;;;18.71;37.65;100267.23;108197;1253;74237;-62
2023/12/17 12:50:56;;;;;;;5.80;5.20;;;;;;;18.77;37.63;100267.16;108271;1253;72118;-67
2023/12/17 12:53:24;;;;;;;6.30;5.20;;;;;;;18.70;37.69;100273.85;108227;1253;73992;-62
2023/12/17 12:55:53;;;;;;;6.10;5.20;;;;;;;18.79;37.72;100277.88;108095;1254;59545;-62
2023/12/17 12:58:21;;;;;;;;;;;;;;;19.03;37.47;100275.55;108160;1253;59875;-69
2023/12/17 13:00:50;;;;;;;6.20;4.80;;;;;;;18.91;37.45;100270.46;108088;1254;73915;-68
2023/12/17 13:03:18;;;;;;;6.40;5.50;;;;;;;18.80;37.82;100276.52;107932;1253;69188;-67
2023/12/17 13:05:46;;;;;;;5.30;4.80;;;;;;;18.92;37.70;100275.27;108240;1253;73421;-67
2023/12/17 13:08:14;;;;;;;5.30;4.70;;;;;;;18.95;37.72;100280.70;108075;1254;60124;-68
2023/12/17 13:10:43;;;;;;;5.20;4.70;;;;;;;18.86;37.86;100285.35;108165;1254;59971;-64
2023/12/17 13:13:11;;;;;;;7.40;4.80;;;;;;;18.69;38.25;100286.17;108100;1254;73983;-66
2023/12/17 13:15:39;;;;;;;6.10;5.50;;;;;;;18.83;37.98;100280.07;108073;1254;69307;-65
2023/12/17 13:18:07;;;;;;;6.70;5.10;;;;;;;18.54;38.39;100276.64;108235;1254;72358;-66
2023/12/17 13:20:35;;;;;;;5.60;5.10;;;;;;;18.49;38.63;100278.60;108307;1254;61745;-66
2023/12/17 13:23:06;;;;;;;6.20;5.60;;;;;;;18.28;38.87;100280.69;108034;1253;59749;-65
2023/12/17 13:25:34;;;;;;;6.70;5.50;;;;;;;18.57;38.54;100283.36;107912;1253;74582;-65
2023/12/17 13:28:02;;;;;;;;;;;;;;;18.58;38.46;100282.05;108162;1254;69271;-66
2023/12/17 13:30:30;;;;;;;5.20;4.60;;;;;;;18.39;38.76;100296.45;108041;1254;72366;-64
2023/12/17 13:33:04;;;;;;;5.90;5.30;;;;;;;18.41;38.82;100300.61;107954;1254;63407;-64
2023/12/17 13:35:32;;;;;;;6.30;5.30;;;;;;;18.36;38.98;100300.22;107910;1254;60549;-64
2023/12/17 13:38:00;;;;;;;7.20;6.00;;;;;;;18.56;38.70;100306.17;108166;1254;72835;-64
2023/12/17 13:40:29;;;;;;;6.30;5.40;;;;;;;18.48;38.60;100312.39;108089;1254;70234;-64
2023/12/17 13:42:57;;;;;;;5.90;5.40;;;;;;;18.40;39.07;100314.11;108229;1253;72696;-63
2023/12/17 13:45:25;;;;;;;7.40;5.40;;;;;;;18.67;38.59;100307.62;108068;1254;62581;-64
2023/12/17 13:47:53;;;;;;;;;;;;;;;18.87;38.34;100303.63;108166;1254;61092;-65
2023/12/17 13:50:21;;;;;;;7.70;5.90;;;;;;;19.12;38.03;100308.70;108122;1252;72647;-65
2023/12/17 13:52:49;;;;;;;6.20;5.20;;;;;;;19.02;37.95;100314.02;108336;1253;70807;-65
2023/12/17 13:55:17;;;;;;;6.10;5.40;;;;;;;18.92;38.28;100314.52;108218;1253;74991;-64
2023/12/17 13:57:45;;;;;;;6.30;5.70;;;;;;;18.92;38.17;100313.63;108166;1254;61437;-65
2023/12/17 14:00:14;;;;;;;7.70;5.50;;;;;;;18.71;38.64;100318.54;108398;1252;58923;-66
2023/12/17 14:02:51;;;;;;;6.00;5.40;;;;;;;18.76;38.64;100316.95;108248;1252;74537;-66
2023/12/17 14:05:20;;;;;;;6.60;5.90;;;;;;;18.69;38.62;100319.92;108075;1252;68227;-66
2023/12/17 14:07:47;;;;;;;;;;;;;;;18.90;38.18;100317.11;108322;1253;72879;-63
2023/12/17 14:10:15;;;;;;;;;;;;;;;19.01;38.18;100317.98;108464;1254;61378;-62
2023/12/17 14:12:46;;;;;;;6.20;5.60;;;;;;;19.01;38.06;100320.46;108140;1254;59483;-66
2023/12/17 14:15:14;;;;;;;9.50;6.30;;;;;;;19.16;38.00;100320.31;108100;1254;74020;-67
2023/12/17 14:17:42;;;;;;;9.50;6.40;;;;;;;19.34;37.61;100316.27;108248;1252;69141;-66
2023/12/17 14:20:11;;;;;;;7.70;5.90;;;;;;;19.23;37.71;100314.16;108299;1254;75590;-67
2023/12/17 14:22:47;;;;;;;7.40;6.10;;;;;;;19.28;37.63;100315.46;108224;1253;62013;-66
2023/12/17 14:25:14;;;;;;;;;;;;;;;19.37;37.50;100316.40;108236;1253;62165;-67
2023/12/17 14:27:42;;;;;;;;;;;;;;;19.36;37.70;100317.55;108282;1253;74486;-68
2023/12/17 14:30:13;;;;;;;6.40;5.80;;;;;;;19.34;37.62;100327.13;108312;1253;69588;-66
2023/12/17 14:32:45;;;;;;;6.80;6.00;;;;;;;18.98;38.07;100327.58;108270;1253;75219;-66
2023/12/17 14:35:13;;;;;;;6.50;5.80;;;;;;;19.28;37.61;100329.98;108238;1253;63001;-67
2023/12/17 14:37:40;;;;;;;7.10;6.40;;;;;;;19.13;37.80;100332.08;108442;1253;59760;-67
2023/12/17 14:40:08;;;;;;;;;;;;;;;19.23;37.89;100331.23;108301;1253;74009;-66
2023/12/17 14:42:36;;;;;;;7.10;6.20;;;;;;;19.33;37.67;100330.58;108227;1253;69868;-66
2023/12/17 14:45:05;;;;;;;6.60;5.90;;;;;;;19.23;37.80;100332.47;108188;1252;72752;-67
2023/12/17 14:47:33;;;;;;;6.60;5.90;;;;;;;19.21;37.80;100335.80;107835;1253;61382;-65
2023/12/17 14:50:01;;;;;;;7.30;6.40;;;;;;;19.23;37.91;100334.47;107801;1253;59830;-67
2023/12/17 14:52:29;;;;;;;5.60;4.90;;;;;;;19.17;38.01;100333.38;108372;1253;74081;-67
2023/12/17 14:54:57;;;;;;;5.80;5.10;;;;;;;19.05;38.24;100336.73;108187;1251;69323;-66
2023/12/17 14:57:25;;;;;;;5.90;5.30;;;;;;;19.01;38.33;100332.91;108166;1253;72744;-67
2023/12/17 14:59:54;;;;;;;7.60;6.50;;;;;;;19.13;38.05;100324.84;108172;1251;60621;-66
2023/12/17 15:02:22;;;;;;;6.70;5.40;;;;;;;19.08;38.19;100329.61;107687;1251;60408;-67
2023/12/17 15:04:50;;;;;;;;;;;;;;;19.20;38.06;100332.52;108245;1251;74013;-67
2023/12/17 15:07:18;;;;;;;6.00;5.40;;;;;;;19.33;37.99;100329.65;108294;1253;69568;-62
2023/12/17 15:09:46;;;;;;;7.60;6.40;;;;;;;19.22;37.99;100332.35;108252;1251;71809;-63
2023/12/17 15:12:14;;;;;;;6.40;5.80;;;;;;;19.02;38.21;100333.14;108237;1251;64769;-62
2023/12/17 15:14:42;;;;;;;6.90;6.00;;;;;;;19.00;38.20;100335.06;108254;1253;59075;-63
2023/12/17 15:17:10;;;;;;;;;;;;;;;18.96;38.35;100336.27;108330;1252;73677;-63
2023/12/17 15:19:37;;;;;;;;;;;;;;;18.95;38.44;100341.14;108294;1251;68652;-62
2023/12/17 15:22:05;;;;;;;7.30;6.00;;;;;;;18.94;38.59;100338.69;108135;1252;74996;-63
2023/12/17 15:24:33;;;;;;;6.90;5.50;;;;;;;18.79;38.72;100338.41;108277;1251;61485;-62
2023/12/17 15:27:02;;;;;;;6.20;5.60;;;;;;;18.69;38.89;100333.94;108293;1251;59374;-62
2023/12/17 15:29:30;;;;;;;6.10;5.60;;;;;;;18.60;39.01;100337.86;107826;1253;75608;-64
2023/12/17 15:31:57;;;;;;;;;;;;;;;18.38;39.48;100341.59;108351;1251;70475;-63
2023/12/17 15:34:25;;;;;;;;;;;;;;;18.88;38.86;100342.95;108309;1251;73378;-63
2023/12/17 15:36:53;;;;;;;;;;;;;;;19.12;38.63;100338.92;108350;1251;61422;-69
2023/12/17 15:39:21;;;;;;;5.80;5.20;;;;;;;18.52;39.30;100342.27;108286;1251;59450;-68
2023/12/17 15:41:49;;;;;;;6.10;5.20;;;;;;;18.83;39.00;100344.55;108309;1251;73727;-66
2023/12/17 15:44:16;;;;;;;;;;;;;;;19.14;38.50;100340.59;108224;1249;69983;-66
2023/12/17 15:46:44;;;;;;;6.70;6.00;;;;;;;19.11;38.48;100329.05;108270;1252;72898;-66
2023/12/17 15:49:12;;;;;;;;;;;;;;;19.11;38.60;100330.27;108147;1253;60537;-67
2023/12/17 15:51:40;;;;;;;5.80;5.30;;;;;;;19.19;38.51;100337.23;108364;1251;59899;-66
2023/12/17 15:54:08;;;;;;;6.50;5.40;;;;;;;19.32;38.49;100335.22;108465;1251;75830;-67
2023/12/17 15:56:40;;;;;;;6.60;5.80;;;;;;;19.34;38.41;100335.79;108347;1252;69727;-67
2023/12/17 15:59:08;;;;;;;5.90;5.40;;;;;;;19.27;38.49;100341.45;108237;1254;73359;-68
2023/12/17 16:01:36;;;;;;;5.50;5.00;;;;;;;19.37;38.32;100348.06;108428;1252;63823;-68
2023/12/17 16:04:04;;;;;;;6.20;5.70;;;;;;;19.19;38.74;100351.60;108428;1251;62698;-68
2023/12/17 16:06:31;;;;;;;5.60;5.10;;;;;;;18.97;38.91;100353.39;108211;1251;72674;-68
2023/12/17 16:09:00;;;;;;;5.50;5.00;;;;;;;19.23;38.54;100354.52;108342;1251;72028;-68
2023/12/17 16:11:28;;;;;;;5.80;5.20;;;;;;;19.26;38.46;100347.38;107790;1251;75540;-68
2023/12/17 16:13:55;;;;;;;5.80;5.30;;;;;;;19.25;38.45;100349.73;108359;1253;61528;-67
2023/12/17 16:16:24;;;;;;;5.60;5.10;;;;;;;19.17;38.64;100341.93;108285;1251;60259;-67
2023/12/17 16:18:51;;;;;;;5.20;4.80;;;;;;;19.21;38.52;100349.16;108367;1251;74070;-67
2023/12/17 16:21:20;;;;;;;5.90;5.30;;;;;;;19.00;38.95;100353.20;108297;1252;69909;-68
2023/12/17 16:23:48;;;;;;;5.80;5.00;;;;;;;19.05;38.77;100350.92;108327;1251;72495;-68
2023/12/17 16:26:16;;;;;;;5.40;5.00;;;;;;;18.99;38.93;100348.30;108480;1250;61398;-68
2023/12/17 16:28:46;;;;;;;7.00;5.50;;;;;;;19.16;38.62;100346.83;108153;1250;60530;-68
2023/12/17 16:31:14;;;;;;;5.50;5.00;;;;;;;19.04;38.91;100338.19;108318;1251;72500;-67